createdAt,value
2019-04-01T00:03:29.379Z,46.57
2019-04-01T00:08:37.583Z,45.78
2019-04-01T00:13:43.040Z,45.63
2019-04-01T00:19:02.105Z,46.83
2019-04-01T00:23:53.967Z,47.13
2019-04-01T00:28:58.815Z,46.67
2019-04-01T00:34:03.791Z,46.83
2019-04-01T00:39:09.177Z,48.50
2019-04-01T00:44:14.004Z,51.00
2019-04-01T00:49:19.562Z,47.53
2019-04-01T00:54:24.294Z,49.20
2019-04-01T00:59:29.490Z,47.10
2019-04-01T01:04:34.307Z,55.17
2019-04-01T01:09:39.431Z,59.63
2019-04-01T01:14:44.025Z,46.17
2019-04-01T01:19:48.673Z,48.28
2019-04-01T01:24:53.178Z,48.95
2019-04-01T01:29:57.782Z,53.90
2019-04-01T01:35:02.359Z,57.10
2019-04-01T01:40:07.521Z,57.70
2019-04-01T01:45:11.845Z,54.67
2019-04-01T01:50:17.985Z,48.30
2019-04-01T01:55:22.418Z,49.80
2019-04-01T02:00:28.357Z,51.13
2019-04-01T02:05:33.217Z,48.57
2019-04-01T02:10:37.652Z,51.43
2019-04-01T02:15:42.208Z,55.53
2019-04-01T02:20:47.168Z,58.27
2019-04-01T02:25:52.014Z,58.87
2019-04-01T02:30:56.783Z,54.43
2019-04-01T02:36:02.404Z,60.03
2019-04-01T02:41:09.973Z,62.43
2019-04-01T02:46:20.087Z,55.00
2019-04-01T02:51:24.795Z,56.87
2019-04-01T02:56:29.309Z,65.60
2019-04-01T03:01:33.802Z,68.20
2019-04-01T03:06:38.138Z,63.40
2019-04-01T03:11:42.705Z,52.63
2019-04-01T03:16:47.441Z,51.73
2019-04-01T03:21:51.911Z,45.65
2019-04-01T03:26:56.648Z,45.80
2019-04-01T03:32:01.812Z,49.33
2019-04-01T03:37:06.827Z,45.73
2019-04-01T03:42:11.317Z,38.60
2019-04-01T03:47:16.353Z,49.67
2019-04-01T03:52:22.994Z,46.33
2019-04-01T03:57:28.004Z,47.80
2019-04-01T04:02:32.477Z,51.93
2019-04-01T04:07:39.576Z,55.17
2019-04-01T04:12:44.379Z,58.93
2019-04-01T04:17:48.921Z,55.17
2019-04-01T04:22:53.848Z,53.17
2019-04-01T04:27:58.443Z,58.80
2019-04-01T04:33:03.504Z,65.10
2019-04-01T04:38:08.205Z,65.67
2019-04-01T04:43:14.130Z,82.43
2019-04-01T04:48:19.621Z,69.80
2019-04-01T04:53:25.252Z,80.17
2019-04-01T04:58:30.118Z,76.07
2019-04-01T05:03:35.424Z,75.23
2019-04-01T05:08:40.581Z,79.10
2019-04-01T05:13:47.734Z,86.43
2019-04-01T05:18:52.927Z,83.13
2019-04-01T05:23:58.217Z,88.90
2019-04-01T05:29:04.776Z,75.30
2019-04-01T05:34:11.189Z,71.23
2019-04-01T05:39:16.662Z,72.17
2019-04-01T05:44:21.863Z,67.53
2019-04-01T05:49:26.987Z,65.10
2019-04-01T05:54:31.799Z,59.33
2019-04-01T05:59:36.133Z,61.40
2019-04-01T06:04:41.414Z,65.95
2019-04-01T06:09:46.042Z,63.67
2019-04-01T06:14:50.460Z,63.00
2019-04-01T06:19:55.356Z,64.83
2019-04-01T06:25:01.305Z,53.13
2019-04-01T06:30:06.816Z,58.10
2019-04-01T06:35:12.974Z,67.80
2019-04-01T06:40:18.085Z,57.93
2019-04-01T06:45:24.633Z,64.07
2019-04-01T06:50:29.431Z,55.43
2019-04-01T06:55:34.326Z,44.70
2019-04-01T07:00:40.327Z,44.53
2019-04-01T07:05:44.829Z,49.00
2019-04-01T07:10:49.469Z,43.40
2019-04-01T07:15:54.114Z,47.17
2019-04-01T07:20:59.004Z,46.15
2019-04-01T07:26:13.201Z,37.08
2019-04-01T07:31:18.664Z,42.93
2019-04-01T07:36:23.267Z,38.95
2019-04-01T07:41:27.822Z,47.33
2019-04-01T07:46:32.758Z,43.27
2019-04-01T07:51:39.944Z,42.50
2019-04-01T07:56:44.635Z,39.38
2019-04-01T08:01:52.660Z,42.45
2019-04-01T08:06:57.070Z,40.73
2019-04-01T08:12:02.259Z,44.70
2019-04-01T08:17:07.657Z,37.50
2019-04-01T08:22:14.806Z,41.58
2019-04-01T08:27:20.165Z,48.52
2019-04-01T08:32:26.898Z,47.60
2019-04-01T08:37:35.160Z,44.58
2019-04-01T08:42:40.135Z,55.15
2019-04-01T08:47:46.321Z,40.03
2019-04-01T08:52:51.654Z,45.43
2019-04-01T08:57:57.342Z,39.60
2019-04-01T09:03:02.122Z,36.20
2019-04-01T09:08:08.391Z,39.25
2019-04-01T09:13:14.185Z,41.53
2019-04-01T09:18:20.822Z,36.33
2019-04-01T09:23:25.298Z,38.15
2019-04-01T09:28:31.411Z,34.38
2019-04-01T09:33:43.431Z,39.83
2019-04-01T09:38:47.643Z,34.65
2019-04-01T09:43:52.332Z,37.87
2019-04-01T09:49:06.256Z,36.13
2019-04-01T09:54:11.257Z,36.60
2019-04-01T09:59:16.425Z,40.40
2019-04-01T10:04:21.305Z,41.02
2019-04-01T10:09:27.449Z,45.75
2019-04-01T10:14:32.564Z,49.17
2019-04-01T10:19:44.386Z,46.85
2019-04-01T10:24:50.922Z,42.32
2019-04-01T10:29:55.842Z,44.73
2019-04-01T10:35:00.858Z,40.90
2019-04-01T10:40:08.631Z,42.20
2019-04-01T10:45:14.098Z,39.38
2019-04-01T10:50:18.770Z,36.20
2019-04-01T10:55:23.950Z,48.02
2019-04-01T11:00:29.914Z,44.47
2019-04-01T11:05:43.437Z,45.08
2019-04-01T11:10:48.213Z,35.77
2019-04-01T11:15:52.835Z,40.88
2019-04-01T11:21:01.444Z,44.40
2019-04-01T11:26:06.556Z,33.92
2019-04-01T11:31:23.011Z,38.55
2019-04-01T11:36:30.759Z,37.70
2019-04-01T11:41:35.967Z,32.77
2019-04-01T11:46:45.284Z,34.25
2019-04-01T11:51:54.187Z,38.28
2019-04-01T11:57:02.864Z,39.08
2019-04-01T12:02:12.323Z,32.27
2019-04-01T12:07:26.699Z,32.35
2019-04-01T12:12:42.623Z,39.30
2019-04-01T12:17:49.825Z,31.90
2019-04-01T12:22:57.227Z,43.52
2019-04-01T12:28:08.338Z,34.00
2019-04-01T12:33:25.845Z,36.25
2019-04-01T12:38:39.308Z,31.40
2019-04-01T12:43:44.530Z,32.05
2019-04-01T12:49:19.906Z,31.50
2019-04-01T12:54:56.654Z,31.42
2019-04-01T13:00:02.055Z,28.60
2019-04-01T13:05:15.034Z,33.08
2019-04-01T13:10:20.380Z,30.62
2019-04-01T13:15:30.238Z,30.52
2019-04-01T13:20:38.369Z,36.70
2019-04-01T13:25:49.000Z,35.10
2019-04-01T13:31:04.023Z,33.63
2019-04-01T13:36:21.168Z,31.80
2019-04-01T13:41:41.531Z,30.10
2019-04-01T13:46:37.346Z,37.85
2019-04-01T13:51:45.329Z,28.95
2019-04-01T13:56:50.875Z,25.10
2019-04-01T14:02:05.924Z,24.77
2019-04-01T14:07:21.342Z,22.60
2019-04-01T14:12:28.266Z,21.55
2019-04-01T14:17:45.003Z,21.37
2019-04-01T14:23:03.210Z,20.68
2019-04-01T14:28:10.052Z,26.05
2019-04-01T14:33:27.361Z,20.77
2019-04-01T14:38:33.557Z,23.00
2019-04-01T14:43:40.319Z,27.65
2019-04-01T14:48:44.910Z,24.75
2019-04-01T14:53:49.544Z,22.27
2019-04-01T14:58:54.576Z,23.98
2019-04-01T15:04:02.486Z,21.70
2019-04-01T15:09:11.218Z,20.40
2019-04-01T15:14:16.490Z,24.82
2019-04-01T15:19:22.132Z,26.62
2019-04-01T15:24:27.188Z,27.37
2019-04-01T15:29:32.567Z,32.30
2019-04-01T15:34:37.922Z,25.03
2019-04-01T15:39:43.144Z,27.82
2019-04-01T15:44:48.073Z,23.73
2019-04-01T15:49:53.188Z,26.70
2019-04-01T15:54:59.414Z,26.12
2019-04-01T16:00:05.278Z,22.85
2019-04-01T16:05:13.783Z,25.83
2019-04-01T16:10:18.396Z,27.67
2019-04-01T16:15:25.930Z,26.73
2019-04-01T16:20:34.037Z,26.77
2019-04-01T16:25:38.957Z,29.50
2019-04-01T16:30:44.809Z,24.32
2019-04-01T16:35:49.622Z,26.13
2019-04-01T16:41:05.730Z,26.00
2019-04-01T16:46:12.652Z,25.65
2019-04-01T16:51:18.817Z,26.68
2019-04-01T16:56:24.130Z,30.43
2019-04-01T17:01:28.914Z,24.53
2019-04-01T17:06:39.023Z,31.53
2019-04-01T17:11:46.744Z,26.93
2019-04-01T17:16:52.669Z,29.23
2019-04-01T17:21:57.558Z,26.27
2019-04-01T17:27:14.126Z,29.90
2019-04-01T17:32:18.969Z,33.90
2019-04-01T17:37:26.475Z,33.83
2019-04-01T17:42:31.676Z,32.10
2019-04-01T17:47:39.407Z,34.30
2019-04-01T17:52:45.351Z,30.67
2019-04-01T17:57:53.301Z,29.07
2019-04-01T18:02:58.098Z,26.63
2019-04-01T18:08:03.023Z,34.37
2019-04-01T18:13:08.210Z,35.27
2019-04-01T18:18:26.176Z,33.37
2019-04-01T18:23:21.898Z,31.40
2019-04-01T18:28:27.752Z,31.37
2019-04-01T18:33:40.173Z,31.37
2019-04-01T18:38:46.200Z,37.10
2019-04-01T18:43:51.211Z,32.83
2019-04-01T18:49:01.243Z,39.30
2019-04-01T18:54:08.182Z,30.83
2019-04-01T18:59:13.228Z,27.87
2019-04-01T19:04:24.329Z,32.00
2019-04-01T19:09:28.901Z,32.73
2019-04-01T19:14:34.383Z,37.90
2019-04-01T19:19:40.440Z,34.80
2019-04-01T19:24:53.023Z,37.80
2019-04-01T19:30:02.085Z,38.57
2019-04-01T19:35:15.447Z,40.70
2019-04-01T19:40:20.941Z,36.70
2019-04-01T19:45:27.053Z,37.53
2019-04-01T19:50:31.860Z,41.97
2019-04-01T19:55:37.067Z,62.33
2019-04-01T20:00:42.981Z,50.70
2019-04-01T20:05:49.187Z,42.00
2019-04-01T20:10:54.530Z,41.77
2019-04-01T20:15:59.712Z,40.63
2019-04-01T20:21:04.461Z,40.10
2019-04-01T20:26:13.022Z,37.73
2019-04-01T20:31:17.912Z,36.70
2019-04-01T20:36:28.671Z,42.85
2019-04-01T20:41:29.985Z,38.60
2019-04-01T20:46:34.625Z,42.07
2019-04-01T20:51:40.888Z,43.40
2019-04-01T20:56:49.095Z,45.47
2019-04-01T21:01:54.070Z,42.57
2019-04-01T21:06:58.873Z,41.53
2019-04-01T21:12:04.599Z,37.67
2019-04-01T21:17:09.471Z,45.33
2019-04-01T21:22:14.363Z,40.93
2019-04-01T21:27:19.639Z,44.40
2019-04-01T21:32:24.492Z,42.27
2019-04-01T21:37:28.934Z,40.53
2019-04-01T21:42:36.224Z,39.00
2019-04-01T21:47:41.206Z,42.40
2019-04-01T21:52:46.737Z,43.67
2019-04-01T21:57:52.357Z,45.70
2019-04-01T22:02:56.849Z,38.53
2019-04-01T22:08:01.914Z,41.20
2019-04-01T22:13:06.465Z,42.37
2019-04-01T22:18:14.351Z,42.97
2019-04-01T22:23:19.457Z,46.17
2019-04-01T22:28:34.334Z,48.07
2019-04-01T22:33:39.220Z,43.03
2019-04-01T22:38:47.948Z,48.73
2019-04-01T22:43:54.293Z,45.07
2019-04-01T22:48:59.226Z,40.87
2019-04-01T22:54:04.083Z,50.43
2019-04-01T22:59:08.673Z,51.77
2019-04-01T23:04:13.174Z,41.30
2019-04-01T23:09:18.251Z,49.40
2019-04-01T23:14:23.280Z,48.03
2019-04-01T23:19:31.183Z,46.67
2019-04-01T23:24:36.612Z,42.27
2019-04-01T23:29:41.409Z,47.13
2019-04-01T23:34:46.354Z,46.60
2019-04-01T23:39:51.099Z,45.37
2019-04-01T23:44:59.907Z,40.07
2019-04-01T23:50:09.093Z,39.73
2019-04-01T23:55:14.475Z,39.37
